Decoded Metar for KORF (NORFOLK in VA, USA) (IATA:ORF) | Meteo·Mobile Aviation Weather
aviador You're here:

KORF Decoded Metar

NORFOLK in VA, USA
Report Time2018-10-18 09:51:00
UTC Time2018-10-18 10:00:23
Flight Rules vfr VFR
Wind360° at 16 Gusting to 24 kt
W.Decomp.*RWY 05: 12.1 kt HW 10.5 kt LCW
RWY 32: 10.5 kt HW 12.1 kt RCW
Visibility9999 m
Phenomena:N/A
Clouds:N/A
Expected CloudBase > 4,000 ft AGL from Temp-Dew spread
CeilingNone
Temp16°C (ISA +1)
Dew Point06°C (52% RH)
AAT9.4°C
QNH1026 hPa
Density Alt-135 ft
Elevation46 ft
Report Wrong Elevation
Raw Report
KORF 180951Z 36016G24KT 10SM CLR 16/06 A3030 RMK AO2 SLP259
T01560061=

Extra information for KORF:More info

Metar Taf Metar & Taf Last 4 Metars F.Rules Stats Wind Profile Meteogram Temp Stats Airport Information Weather charts Add Link Nearby VenuesMetar ALERT Operation Metar Decoded Social comments

AIRNAV info for KORF